sensor_id;sensor_type;location;lat;lon;timestamp;P1;durP1;ratioP1;P2;durP2;ratioP2
15712;SDS011;7957;51.608;6.916;2023-03-23T00:01:14;8.70;;;6.27;;
15712;SDS011;7957;51.608;6.916;2023-03-23T00:03:46;8.63;;;5.50;;
15712;SDS011;7957;51.608;6.916;2023-03-23T00:06:15;7.40;;;5.60;;
15712;SDS011;7957;51.608;6.916;2023-03-23T00:08:43;7.43;;;5.53;;
15712;SDS011;7957;51.608;6.916;2023-03-23T00:11:11;7.20;;;5.70;;
15712;SDS011;7957;51.608;6.916;2023-03-23T00:13:39;7.17;;;5.10;;
15712;SDS011;7957;51.608;6.916;2023-03-23T00:16:07;6.83;;;5.43;;
15712;SDS011;7957;51.608;6.916;2023-03-23T00:18:42;6.17;;;4.80;;
15712;SDS011;7957;51.608;6.916;2023-03-23T00:21:11;7.40;;;5.40;;
15712;SDS011;7957;51.608;6.916;2023-03-23T00:23:39;5.80;;;5.03;;
15712;SDS011;7957;51.608;6.916;2023-03-23T00:26:09;7.50;;;4.67;;
15712;SDS011;7957;51.608;6.916;2023-03-23T00:28:37;7.37;;;5.10;;
15712;SDS011;7957;51.608;6.916;2023-03-23T00:31:05;4.50;;;4.10;;
15712;SDS011;7957;51.608;6.916;2023-03-23T00:33:34;6.63;;;4.80;;
15712;SDS011;7957;51.608;6.916;2023-03-23T00:36:05;7.93;;;4.87;;
15712;SDS011;7957;51.608;6.916;2023-03-23T00:38:35;5.80;;;4.70;;
15712;SDS011;7957;51.608;6.916;2023-03-23T00:41:03;6.53;;;4.53;;
15712;SDS011;7957;51.608;6.916;2023-03-23T00:43:31;7.00;;;5.03;;
15712;SDS011;7957;51.608;6.916;2023-03-23T00:46:00;6.60;;;4.57;;
15712;SDS011;7957;51.608;6.916;2023-03-23T00:48:33;5.80;;;4.40;;
15712;SDS011;7957;51.608;6.916;2023-03-23T00:51:00;5.73;;;4.47;;
15712;SDS011;7957;51.608;6.916;2023-03-23T00:53:31;6.33;;;4.70;;
15712;SDS011;7957;51.608;6.916;2023-03-23T00:55:59;6.80;;;4.53;;
15712;SDS011;7957;51.608;6.916;2023-03-23T00:58:26;8.13;;;4.57;;
15712;SDS011;7957;51.608;6.916;2023-03-23T01:00:53;5.53;;;4.33;;
15712;SDS011;7957;51.608;6.916;2023-03-23T01:03:21;7.77;;;4.77;;
15712;SDS011;7957;51.608;6.916;2023-03-23T01:05:51;6.00;;;4.50;;
15712;SDS011;7957;51.608;6.916;2023-03-23T01:08:20;7.97;;;4.73;;
15712;SDS011;7957;51.608;6.916;2023-03-23T01:10:47;5.20;;;4.23;;
15712;SDS011;7957;51.608;6.916;2023-03-23T01:13:16;6.03;;;4.40;;
15712;SDS011;7957;51.608;6.916;2023-03-23T01:15:43;7.53;;;4.57;;
15712;SDS011;7957;51.608;6.916;2023-03-23T01:18:11;4.67;;;4.20;;
15712;SDS011;7957;51.608;6.916;2023-03-23T01:20:38;6.90;;;4.50;;
15712;SDS011;7957;51.608;6.916;2023-03-23T01:23:07;6.20;;;4.20;;
15712;SDS011;7957;51.608;6.916;2023-03-23T01:25:35;5.30;;;4.13;;
15712;SDS011;7957;51.608;6.916;2023-03-23T01:31:13;5.80;;;4.10;;
15712;SDS011;7957;51.608;6.916;2023-03-23T01:33:41;4.77;;;4.30;;
15712;SDS011;7957;51.608;6.916;2023-03-23T01:36:10;5.67;;;4.33;;
15712;SDS011;7957;51.608;6.916;2023-03-23T01:38:38;4.07;;;3.67;;
15712;SDS011;7957;51.608;6.916;2023-03-23T01:41:06;4.20;;;3.80;;
15712;SDS011;7957;51.608;6.916;2023-03-23T01:43:33;5.80;;;3.93;;
15712;SDS011;7957;51.608;6.916;2023-03-23T01:46:00;4.97;;;4.10;;
15712;SDS011;7957;51.608;6.916;2023-03-23T01:48:29;6.20;;;3.93;;
15712;SDS011;7957;51.608;6.916;2023-03-23T01:50:59;5.07;;;3.97;;
15712;SDS011;7957;51.608;6.916;2023-03-23T01:53:30;5.83;;;3.83;;
15712;SDS011;7957;51.608;6.916;2023-03-23T01:56:01;5.37;;;3.30;;
15712;SDS011;7957;51.608;6.916;2023-03-23T01:58:29;5.50;;;3.97;;
15712;SDS011;7957;51.608;6.916;2023-03-23T02:01:00;4.20;;;3.47;;
15712;SDS011;7957;51.608;6.916;2023-03-23T02:03:31;5.70;;;3.73;;
15712;SDS011;7957;51.608;6.916;2023-03-23T02:05:59;3.83;;;3.50;;
15712;SDS011;7957;51.608;6.916;2023-03-23T02:08:26;4.23;;;3.47;;
15712;SDS011;7957;51.608;6.916;2023-03-23T02:10:55;5.60;;;3.70;;
15712;SDS011;7957;51.608;6.916;2023-03-23T02:13:22;5.70;;;3.70;;
15712;SDS011;7957;51.608;6.916;2023-03-23T02:15:52;3.93;;;3.57;;
15712;SDS011;7957;51.608;6.916;2023-03-23T02:18:33;4.80;;;4.07;;
15712;SDS011;7957;51.608;6.916;2023-03-23T02:27:20;6.10;;;3.77;;
15712;SDS011;7957;51.608;6.916;2023-03-23T02:30:08;4.07;;;3.20;;
15712;SDS011;7957;51.608;6.916;2023-03-23T02:32:47;6.07;;;3.60;;
15712;SDS011;7957;51.608;6.916;2023-03-23T02:35:38;5.20;;;4.20;;
15712;SDS011;7957;51.608;6.916;2023-03-23T02:38:08;5.33;;;3.47;;
15712;SDS011;7957;51.608;6.916;2023-03-23T02:40:40;5.40;;;3.40;;
15712;SDS011;7957;51.608;6.916;2023-03-23T02:43:10;4.80;;;3.90;;
15712;SDS011;7957;51.608;6.916;2023-03-23T02:45:40;5.30;;;3.90;;
15712;SDS011;7957;51.608;6.916;2023-03-23T02:48:10;4.97;;;4.43;;
15712;SDS011;7957;51.608;6.916;2023-03-23T02:50:43;3.93;;;3.63;;
15712;SDS011;7957;51.608;6.916;2023-03-23T02:53:13;3.97;;;3.40;;
15712;SDS011;7957;51.608;6.916;2023-03-23T02:55:45;4.47;;;4.07;;
15712;SDS011;7957;51.608;6.916;2023-03-23T02:58:13;4.13;;;3.70;;
15712;SDS011;7957;51.608;6.916;2023-03-23T03:00:41;4.17;;;3.60;;
15712;SDS011;7957;51.608;6.916;2023-03-23T03:03:10;4.13;;;3.50;;
15712;SDS011;7957;51.608;6.916;2023-03-23T03:05:42;5.23;;;3.73;;
15712;SDS011;7957;51.608;6.916;2023-03-23T03:08:21;3.77;;;3.40;;
15712;SDS011;7957;51.608;6.916;2023-03-23T03:10:53;5.30;;;3.60;;
15712;SDS011;7957;51.608;6.916;2023-03-23T03:13:28;5.20;;;4.27;;
15712;SDS011;7957;51.608;6.916;2023-03-23T03:16:00;6.37;;;4.13;;
15712;SDS011;7957;51.608;6.916;2023-03-23T03:18:34;4.20;;;3.77;;
15712;SDS011;7957;51.608;6.916;2023-03-23T03:21:10;4.53;;;3.80;;
15712;SDS011;7957;51.608;6.916;2023-03-23T03:23:40;5.50;;;3.90;;
15712;SDS011;7957;51.608;6.916;2023-03-23T03:26:09;5.23;;;3.80;;
15712;SDS011;7957;51.608;6.916;2023-03-23T03:28:37;4.00;;;3.60;;
15712;SDS011;7957;51.608;6.916;2023-03-23T03:31:06;4.00;;;3.57;;
15712;SDS011;7957;51.608;6.916;2023-03-23T03:33:34;4.67;;;3.77;;
15712;SDS011;7957;51.608;6.916;2023-03-23T03:36:02;5.20;;;3.77;;
15712;SDS011;7957;51.608;6.916;2023-03-23T03:38:41;4.00;;;3.47;;
15712;SDS011;7957;51.608;6.916;2023-03-23T03:41:10;4.67;;;3.37;;
15712;SDS011;7957;51.608;6.916;2023-03-23T03:43:37;6.40;;;3.90;;
15712;SDS011;7957;51.608;6.916;2023-03-23T03:46:04;5.37;;;3.63;;
15712;SDS011;7957;51.608;6.916;2023-03-23T03:48:32;4.13;;;3.13;;
15712;SDS011;7957;51.608;6.916;2023-03-23T03:50:59;4.23;;;3.83;;
15712;SDS011;7957;51.608;6.916;2023-03-23T03:53:26;5.33;;;3.60;;
15712;SDS011;7957;51.608;6.916;2023-03-23T03:55:56;4.37;;;3.60;;
15712;SDS011;7957;51.608;6.916;2023-03-23T03:58:25;3.83;;;3.10;;
15712;SDS011;7957;51.608;6.916;2023-03-23T04:00:56;5.40;;;3.50;;
15712;SDS011;7957;51.608;6.916;2023-03-23T04:03:24;4.37;;;3.27;;
15712;SDS011;7957;51.608;6.916;2023-03-23T04:05:51;3.57;;;3.07;;
15712;SDS011;7957;51.608;6.916;2023-03-23T04:08:20;4.10;;;3.30;;
15712;SDS011;7957;51.608;6.916;2023-03-23T04:10:48;5.63;;;3.40;;
15712;SDS011;7957;51.608;6.916;2023-03-23T04:13:16;4.13;;;3.17;;
15712;SDS011;7957;51.608;6.916;2023-03-23T04:15:44;4.23;;;3.60;;
15712;SDS011;7957;51.608;6.916;2023-03-23T04:18:11;3.47;;;3.10;;
15712;SDS011;7957;51.608;6.916;2023-03-23T04:20:40;4.97;;;3.03;;
15712;SDS011;7957;51.608;6.916;2023-03-23T04:23:07;5.07;;;3.20;;
15712;SDS011;7957;51.608;6.916;2023-03-23T04:25:34;4.27;;;3.30;;
15712;SDS011;7957;51.608;6.916;2023-03-23T04:28:01;3.80;;;3.40;;
15712;SDS011;7957;51.608;6.916;2023-03-23T04:30:30;3.70;;;3.07;;
15712;SDS011;7957;51.608;6.916;2023-03-23T04:32:57;3.23;;;2.83;;
15712;SDS011;7957;51.608;6.916;2023-03-23T04:35:26;3.40;;;3.10;;
15712;SDS011;7957;51.608;6.916;2023-03-23T04:37:54;3.83;;;3.40;;
15712;SDS011;7957;51.608;6.916;2023-03-23T04:40:22;4.07;;;3.17;;
15712;SDS011;7957;51.608;6.916;2023-03-23T04:42:49;3.70;;;2.90;;
15712;SDS011;7957;51.608;6.916;2023-03-23T04:45:22;3.97;;;3.10;;
15712;SDS011;7957;51.608;6.916;2023-03-23T04:47:51;4.93;;;3.50;;
15712;SDS011;7957;51.608;6.916;2023-03-23T04:50:22;3.90;;;3.50;;
15712;SDS011;7957;51.608;6.916;2023-03-23T04:52:52;3.90;;;3.37;;
15712;SDS011;7957;51.608;6.916;2023-03-23T04:55:21;3.93;;;3.53;;
15712;SDS011;7957;51.608;6.916;2023-03-23T04:57:48;3.90;;;3.27;;
15712;SDS011;7957;51.608;6.916;2023-03-23T05:00:16;4.80;;;3.47;;
15712;SDS011;7957;51.608;6.916;2023-03-23T05:02:46;3.97;;;3.57;;
15712;SDS011;7957;51.608;6.916;2023-03-23T05:05:18;4.50;;;3.33;;
15712;SDS011;7957;51.608;6.916;2023-03-23T05:07:46;4.30;;;3.90;;
15712;SDS011;7957;51.608;6.916;2023-03-23T05:10:14;4.70;;;3.80;;
15712;SDS011;7957;51.608;6.916;2023-03-23T05:12:42;4.17;;;3.77;;
15712;SDS011;7957;51.608;6.916;2023-03-23T05:15:11;4.90;;;4.20;;
15712;SDS011;7957;51.608;6.916;2023-03-23T05:17:39;5.70;;;4.03;;
15712;SDS011;7957;51.608;6.916;2023-03-23T05:20:09;7.43;;;4.60;;
15712;SDS011;7957;51.608;6.916;2023-03-23T05:22:40;6.80;;;4.10;;
15712;SDS011;7957;51.608;6.916;2023-03-23T05:25:09;7.60;;;4.60;;
15712;SDS011;7957;51.608;6.916;2023-03-23T05:27:36;5.87;;;4.83;;
15712;SDS011;7957;51.608;6.916;2023-03-23T05:30:03;6.80;;;4.97;;
15712;SDS011;7957;51.608;6.916;2023-03-23T05:32:31;6.73;;;4.63;;
15712;SDS011;7957;51.608;6.916;2023-03-23T05:34:59;7.57;;;5.50;;
15712;SDS011;7957;51.608;6.916;2023-03-23T05:37:28;7.67;;;5.00;;
15712;SDS011;7957;51.608;6.916;2023-03-23T05:39:58;6.93;;;5.20;;
15712;SDS011;7957;51.608;6.916;2023-03-23T05:42:31;7.37;;;5.50;;
15712;SDS011;7957;51.608;6.916;2023-03-23T05:44:59;7.40;;;5.37;;
15712;SDS011;7957;51.608;6.916;2023-03-23T05:47:26;6.80;;;5.17;;
15712;SDS011;7957;51.608;6.916;2023-03-23T05:53:39;7.90;;;5.37;;
15712;SDS011;7957;51.608;6.916;2023-03-23T05:56:08;8.63;;;5.87;;
15712;SDS011;7957;51.608;6.916;2023-03-23T05:58:35;8.43;;;5.50;;
15712;SDS011;7957;51.608;6.916;2023-03-23T06:01:05;7.93;;;5.23;;
15712;SDS011;7957;51.608;6.916;2023-03-23T06:03:33;8.73;;;5.47;;
15712;SDS011;7957;51.608;6.916;2023-03-23T06:06:04;6.30;;;4.90;;
15712;SDS011;7957;51.608;6.916;2023-03-23T06:08:31;6.60;;;5.23;;
15712;SDS011;7957;51.608;6.916;2023-03-23T06:10:58;7.70;;;5.77;;
15712;SDS011;7957;51.608;6.916;2023-03-23T06:13:27;7.67;;;5.23;;
15712;SDS011;7957;51.608;6.916;2023-03-23T06:15:54;6.73;;;5.13;;
15712;SDS011;7957;51.608;6.916;2023-03-23T06:18:23;7.47;;;4.90;;
15712;SDS011;7957;51.608;6.916;2023-03-23T06:20:50;6.57;;;4.53;;
15712;SDS011;7957;51.608;6.916;2023-03-23T06:23:17;6.93;;;5.27;;
15712;SDS011;7957;51.608;6.916;2023-03-23T06:25:44;10.10;;;5.27;;
15712;SDS011;7957;51.608;6.916;2023-03-23T06:28:11;6.37;;;4.80;;
15712;SDS011;7957;51.608;6.916;2023-03-23T06:30:40;7.43;;;5.07;;
15712;SDS011;7957;51.608;6.916;2023-03-23T06:33:07;7.00;;;4.90;;
15712;SDS011;7957;51.608;6.916;2023-03-23T06:35:34;6.10;;;5.07;;
15712;SDS011;7957;51.608;6.916;2023-03-23T06:38:01;7.10;;;5.10;;
15712;SDS011;7957;51.608;6.916;2023-03-23T06:40:29;8.57;;;5.03;;
15712;SDS011;7957;51.608;6.916;2023-03-23T06:42:56;6.70;;;4.77;;
15712;SDS011;7957;51.608;6.916;2023-03-23T06:45:24;6.87;;;4.93;;
15712;SDS011;7957;51.608;6.916;2023-03-23T06:47:52;9.27;;;5.17;;
15712;SDS011;7957;51.608;6.916;2023-03-23T06:50:19;6.53;;;4.70;;
15712;SDS011;7957;51.608;6.916;2023-03-23T06:52:47;6.17;;;4.20;;
15712;SDS011;7957;51.608;6.916;2023-03-23T06:55:15;8.63;;;4.70;;
15712;SDS011;7957;51.608;6.916;2023-03-23T06:57:43;9.63;;;4.73;;
15712;SDS011;7957;51.608;6.916;2023-03-23T07:00:11;7.97;;;4.43;;
15712;SDS011;7957;51.608;6.916;2023-03-23T07:02:38;8.87;;;4.20;;
15712;SDS011;7957;51.608;6.916;2023-03-23T07:05:07;7.77;;;4.87;;
15712;SDS011;7957;51.608;6.916;2023-03-23T07:07:35;8.20;;;4.50;;
15712;SDS011;7957;51.608;6.916;2023-03-23T07:10:02;8.07;;;4.23;;
15712;SDS011;7957;51.608;6.916;2023-03-23T07:12:29;7.17;;;4.60;;
15712;SDS011;7957;51.608;6.916;2023-03-23T07:14:58;7.87;;;4.30;;
15712;SDS011;7957;51.608;6.916;2023-03-23T07:17:25;9.40;;;4.40;;
15712;SDS011;7957;51.608;6.916;2023-03-23T07:19:52;7.23;;;4.37;;
15712;SDS011;7957;51.608;6.916;2023-03-23T07:22:20;6.83;;;4.20;;
15712;SDS011;7957;51.608;6.916;2023-03-23T07:24:47;8.20;;;4.37;;
15712;SDS011;7957;51.608;6.916;2023-03-23T07:27:15;7.60;;;4.20;;
15712;SDS011;7957;51.608;6.916;2023-03-23T07:29:41;6.97;;;4.47;;
15712;SDS011;7957;51.608;6.916;2023-03-23T07:32:10;7.67;;;4.57;;
15712;SDS011;7957;51.608;6.916;2023-03-23T07:34:38;10.27;;;4.50;;
15712;SDS011;7957;51.608;6.916;2023-03-23T07:37:05;9.80;;;3.93;;
15712;SDS011;7957;51.608;6.916;2023-03-23T07:39:34;8.93;;;4.67;;
15712;SDS011;7957;51.608;6.916;2023-03-23T07:42:01;9.03;;;4.40;;
15712;SDS011;7957;51.608;6.916;2023-03-23T07:44:28;7.27;;;4.07;;
15712;SDS011;7957;51.608;6.916;2023-03-23T07:46:54;6.03;;;3.97;;
15712;SDS011;7957;51.608;6.916;2023-03-23T07:49:21;10.37;;;4.50;;
15712;SDS011;7957;51.608;6.916;2023-03-23T07:51:48;8.43;;;4.53;;
15712;SDS011;7957;51.608;6.916;2023-03-23T07:54:16;6.17;;;3.90;;
15712;SDS011;7957;51.608;6.916;2023-03-23T07:56:44;6.77;;;3.90;;
15712;SDS011;7957;51.608;6.916;2023-03-23T07:59:11;5.97;;;3.90;;
15712;SDS011;7957;51.608;6.916;2023-03-23T08:01:39;7.87;;;4.03;;
15712;SDS011;7957;51.608;6.916;2023-03-23T08:04:06;6.83;;;3.80;;
15712;SDS011;7957;51.608;6.916;2023-03-23T08:06:34;9.73;;;4.67;;
15712;SDS011;7957;51.608;6.916;2023-03-23T08:09:01;7.53;;;3.93;;
15712;SDS011;7957;51.608;6.916;2023-03-23T08:11:31;9.17;;;4.10;;
15712;SDS011;7957;51.608;6.916;2023-03-23T08:14:00;8.87;;;4.00;;
15712;SDS011;7957;51.608;6.916;2023-03-23T08:16:27;9.67;;;4.20;;
15712;SDS011;7957;51.608;6.916;2023-03-23T08:18:55;6.33;;;3.73;;
15712;SDS011;7957;51.608;6.916;2023-03-23T08:21:23;11.27;;;3.90;;
15712;SDS011;7957;51.608;6.916;2023-03-23T08:23:51;7.37;;;3.50;;
15712;SDS011;7957;51.608;6.916;2023-03-23T08:26:21;8.20;;;3.57;;
15712;SDS011;7957;51.608;6.916;2023-03-23T08:28:48;7.50;;;3.50;;
15712;SDS011;7957;51.608;6.916;2023-03-23T08:31:16;8.63;;;4.10;;
15712;SDS011;7957;51.608;6.916;2023-03-23T08:33:43;6.83;;;3.83;;
15712;SDS011;7957;51.608;6.916;2023-03-23T08:36:11;7.63;;;3.73;;
15712;SDS011;7957;51.608;6.916;2023-03-23T08:38:38;7.23;;;3.70;;
15712;SDS011;7957;51.608;6.916;2023-03-23T08:41:05;7.83;;;3.70;;
15712;SDS011;7957;51.608;6.916;2023-03-23T08:43:33;8.07;;;3.47;;
15712;SDS011;7957;51.608;6.916;2023-03-23T08:46:03;7.10;;;3.50;;
15712;SDS011;7957;51.608;6.916;2023-03-23T08:48:37;4.67;;;3.60;;
15712;SDS011;7957;51.608;6.916;2023-03-23T08:51:04;6.17;;;3.57;;
15712;SDS011;7957;51.608;6.916;2023-03-23T08:53:33;6.40;;;3.50;;
15712;SDS011;7957;51.608;6.916;2023-03-23T08:56:05;6.97;;;3.23;;
15712;SDS011;7957;51.608;6.916;2023-03-23T08:58:33;5.87;;;3.73;;
15712;SDS011;7957;51.608;6.916;2023-03-23T09:01:00;7.03;;;3.27;;
15712;SDS011;7957;51.608;6.916;2023-03-23T09:03:27;5.97;;;3.37;;
15712;SDS011;7957;51.608;6.916;2023-03-23T09:05:59;8.30;;;3.30;;
15712;SDS011;7957;51.608;6.916;2023-03-23T09:08:27;6.47;;;3.03;;
15712;SDS011;7957;51.608;6.916;2023-03-23T09:10:54;7.77;;;3.00;;
15712;SDS011;7957;51.608;6.916;2023-03-23T09:13:22;7.10;;;3.40;;
15712;SDS011;7957;51.608;6.916;2023-03-23T09:15:49;5.63;;;3.33;;
15712;SDS011;7957;51.608;6.916;2023-03-23T09:18:17;8.03;;;3.20;;
15712;SDS011;7957;51.608;6.916;2023-03-23T09:20:45;7.90;;;3.13;;
15712;SDS011;7957;51.608;6.916;2023-03-23T09:23:13;7.53;;;3.57;;
15712;SDS011;7957;51.608;6.916;2023-03-23T09:25:40;6.30;;;3.13;;
15712;SDS011;7957;51.608;6.916;2023-03-23T09:28:07;7.57;;;2.90;;
15712;SDS011;7957;51.608;6.916;2023-03-23T09:30:34;5.60;;;2.80;;
15712;SDS011;7957;51.608;6.916;2023-03-23T09:33:02;6.47;;;2.73;;
15712;SDS011;7957;51.608;6.916;2023-03-23T09:35:31;7.03;;;2.93;;
15712;SDS011;7957;51.608;6.916;2023-03-23T09:37:59;9.23;;;3.00;;
15712;SDS011;7957;51.608;6.916;2023-03-23T09:40:29;6.03;;;2.53;;
15712;SDS011;7957;51.608;6.916;2023-03-23T09:43:06;4.63;;;2.30;;
15712;SDS011;7957;51.608;6.916;2023-03-23T09:45:43;6.37;;;2.70;;
15712;SDS011;7957;51.608;6.916;2023-03-23T09:48:21;4.23;;;1.87;;
15712;SDS011;7957;51.608;6.916;2023-03-23T09:50:58;5.47;;;2.30;;
15712;SDS011;7957;51.608;6.916;2023-03-23T09:53:30;4.23;;;2.03;;
15712;SDS011;7957;51.608;6.916;2023-03-23T09:56:08;4.10;;;2.00;;
15712;SDS011;7957;51.608;6.916;2023-03-23T09:58:39;6.87;;;2.97;;
15712;SDS011;7957;51.608;6.916;2023-03-23T10:01:14;5.13;;;2.23;;
15712;SDS011;7957;51.608;6.916;2023-03-23T10:03:45;4.97;;;2.33;;
15712;SDS011;7957;51.608;6.916;2023-03-23T10:06:13;6.83;;;2.33;;
15712;SDS011;7957;51.608;6.916;2023-03-23T10:08:44;3.90;;;1.87;;
15712;SDS011;7957;51.608;6.916;2023-03-23T10:11:16;3.80;;;1.80;;
15712;SDS011;7957;51.608;6.916;2023-03-23T10:13:52;3.17;;;1.70;;
15712;SDS011;7957;51.608;6.916;2023-03-23T10:16:33;4.10;;;1.90;;
15712;SDS011;7957;51.608;6.916;2023-03-23T10:19:08;3.83;;;1.80;;
15712;SDS011;7957;51.608;6.916;2023-03-23T10:21:40;3.57;;;2.00;;
15712;SDS011;7957;51.608;6.916;2023-03-23T10:24:13;3.40;;;1.80;;
15712;SDS011;7957;51.608;6.916;2023-03-23T10:26:47;4.13;;;1.70;;
15712;SDS011;7957;51.608;6.916;2023-03-23T10:29:21;5.17;;;2.20;;
15712;SDS011;7957;51.608;6.916;2023-03-23T10:31:53;5.43;;;1.83;;
15712;SDS011;7957;51.608;6.916;2023-03-23T10:34:31;5.07;;;2.00;;
15712;SDS011;7957;51.608;6.916;2023-03-23T10:37:03;4.63;;;2.00;;
15712;SDS011;7957;51.608;6.916;2023-03-23T10:39:38;3.87;;;1.90;;
15712;SDS011;7957;51.608;6.916;2023-03-23T10:42:20;5.50;;;2.20;;
15712;SDS011;7957;51.608;6.916;2023-03-23T10:44:48;2.80;;;1.57;;
15712;SDS011;7957;51.608;6.916;2023-03-23T10:47:15;3.00;;;1.97;;
15712;SDS011;7957;51.608;6.916;2023-03-23T10:49:43;4.47;;;2.10;;
15712;SDS011;7957;51.608;6.916;2023-03-23T10:52:20;4.33;;;1.70;;
15712;SDS011;7957;51.608;6.916;2023-03-23T10:54:55;3.67;;;1.90;;
15712;SDS011;7957;51.608;6.916;2023-03-23T10:57:25;3.30;;;1.60;;
15712;SDS011;7957;51.608;6.916;2023-03-23T10:59:58;6.43;;;2.10;;
15712;SDS011;7957;51.608;6.916;2023-03-23T11:02:31;4.73;;;1.87;;
15712;SDS011;7957;51.608;6.916;2023-03-23T11:05:02;2.23;;;1.50;;
15712;SDS011;7957;51.608;6.916;2023-03-23T11:07:33;4.17;;;1.60;;
15712;SDS011;7957;51.608;6.916;2023-03-23T11:10:06;2.50;;;1.37;;
15712;SDS011;7957;51.608;6.916;2023-03-23T11:12:44;2.93;;;1.67;;
15712;SDS011;7957;51.608;6.916;2023-03-23T11:15:26;3.60;;;1.97;;
15712;SDS011;7957;51.608;6.916;2023-03-23T11:17:56;2.90;;;1.80;;
15712;SDS011;7957;51.608;6.916;2023-03-23T11:20:28;4.70;;;2.40;;
15712;SDS011;7957;51.608;6.916;2023-03-23T11:23:01;3.97;;;2.23;;
15712;SDS011;7957;51.608;6.916;2023-03-23T11:25:33;6.17;;;2.43;;
15712;SDS011;7957;51.608;6.916;2023-03-23T11:28:15;5.03;;;2.37;;
15712;SDS011;7957;51.608;6.916;2023-03-23T11:30:42;5.70;;;2.50;;
15712;SDS011;7957;51.608;6.916;2023-03-23T11:33:09;6.93;;;2.40;;
15712;SDS011;7957;51.608;6.916;2023-03-23T11:35:42;5.03;;;2.50;;
15712;SDS011;7957;51.608;6.916;2023-03-23T11:38:12;6.63;;;2.30;;
15712;SDS011;7957;51.608;6.916;2023-03-23T11:40:46;4.53;;;2.50;;
15712;SDS011;7957;51.608;6.916;2023-03-23T11:43:19;5.67;;;2.27;;
15712;SDS011;7957;51.608;6.916;2023-03-23T11:45:48;4.73;;;2.50;;
15712;SDS011;7957;51.608;6.916;2023-03-23T11:48:24;2.83;;;2.10;;
15712;SDS011;7957;51.608;6.916;2023-03-23T11:50:55;5.67;;;2.17;;
15712;SDS011;7957;51.608;6.916;2023-03-23T11:53:30;3.93;;;1.97;;
15712;SDS011;7957;51.608;6.916;2023-03-23T11:56:06;5.37;;;2.57;;
15712;SDS011;7957;51.608;6.916;2023-03-23T11:58:40;4.00;;;2.27;;
15712;SDS011;7957;51.608;6.916;2023-03-23T12:01:10;5.57;;;2.60;;
15712;SDS011;7957;51.608;6.916;2023-03-23T12:03:51;4.30;;;2.23;;
15712;SDS011;7957;51.608;6.916;2023-03-23T12:06:30;4.07;;;2.20;;
15712;SDS011;7957;51.608;6.916;2023-03-23T12:09:08;3.87;;;2.40;;
15712;SDS011;7957;51.608;6.916;2023-03-23T12:11:48;2.13;;;1.93;;
15712;SDS011;7957;51.608;6.916;2023-03-23T12:14:28;3.73;;;2.40;;
15712;SDS011;7957;51.608;6.916;2023-03-23T12:17:05;3.07;;;2.10;;
15712;SDS011;7957;51.608;6.916;2023-03-23T12:19:48;4.53;;;2.60;;
15712;SDS011;7957;51.608;6.916;2023-03-23T12:22:31;4.83;;;2.50;;
15712;SDS011;7957;51.608;6.916;2023-03-23T12:25:12;5.07;;;2.73;;
15712;SDS011;7957;51.608;6.916;2023-03-23T12:27:58;5.33;;;2.60;;
15712;SDS011;7957;51.608;6.916;2023-03-23T12:30:34;6.00;;;2.60;;
15712;SDS011;7957;51.608;6.916;2023-03-23T12:33:13;4.07;;;2.63;;
15712;SDS011;7957;51.608;6.916;2023-03-23T12:35:49;5.50;;;2.57;;
15712;SDS011;7957;51.608;6.916;2023-03-23T12:41:22;4.40;;;3.03;;
15712;SDS011;7957;51.608;6.916;2023-03-23T12:43:56;3.50;;;2.50;;
15712;SDS011;7957;51.608;6.916;2023-03-23T12:46:49;4.93;;;2.83;;
15712;SDS011;7957;51.608;6.916;2023-03-23T12:49:26;6.27;;;2.63;;
15712;SDS011;7957;51.608;6.916;2023-03-23T12:51:57;4.80;;;2.70;;
15712;SDS011;7957;51.608;6.916;2023-03-23T12:54:29;4.70;;;2.70;;
15712;SDS011;7957;51.608;6.916;2023-03-23T12:57:01;5.13;;;2.73;;
15712;SDS011;7957;51.608;6.916;2023-03-23T12:59:36;3.93;;;2.77;;
15712;SDS011;7957;51.608;6.916;2023-03-23T13:02:13;3.57;;;2.87;;
15712;SDS011;7957;51.608;6.916;2023-03-23T13:04:46;6.50;;;3.13;;
15712;SDS011;7957;51.608;6.916;2023-03-23T13:07:19;5.23;;;2.90;;
15712;SDS011;7957;51.608;6.916;2023-03-23T13:09:52;5.37;;;2.67;;
15712;SDS011;7957;51.608;6.916;2023-03-23T13:12:24;4.20;;;2.70;;
15712;SDS011;7957;51.608;6.916;2023-03-23T13:14:56;3.63;;;2.80;;
15712;SDS011;7957;51.608;6.916;2023-03-23T13:17:35;5.77;;;2.87;;
15712;SDS011;7957;51.608;6.916;2023-03-23T13:23:13;4.93;;;3.23;;
15712;SDS011;7957;51.608;6.916;2023-03-23T13:25:52;3.07;;;2.67;;
15712;SDS011;7957;51.608;6.916;2023-03-23T13:28:23;4.13;;;3.40;;
15712;SDS011;7957;51.608;6.916;2023-03-23T13:30:54;4.80;;;3.57;;
15712;SDS011;7957;51.608;6.916;2023-03-23T13:33:28;7.33;;;3.83;;
15712;SDS011;7957;51.608;6.916;2023-03-23T13:36:01;5.33;;;3.47;;
15712;SDS011;7957;51.608;6.916;2023-03-23T13:38:35;4.40;;;3.53;;
15712;SDS011;7957;51.608;6.916;2023-03-23T13:41:06;5.33;;;3.27;;
15712;SDS011;7957;51.608;6.916;2023-03-23T13:43:36;6.47;;;3.80;;
15712;SDS011;7957;51.608;6.916;2023-03-23T13:46:09;6.00;;;3.73;;
15712;SDS011;7957;51.608;6.916;2023-03-23T13:49:02;5.73;;;3.70;;
15712;SDS011;7957;51.608;6.916;2023-03-23T13:51:47;5.67;;;3.30;;
15712;SDS011;7957;51.608;6.916;2023-03-23T13:54:24;6.67;;;3.30;;
15712;SDS011;7957;51.608;6.916;2023-03-23T13:56:57;5.63;;;3.30;;
15712;SDS011;7957;51.608;6.916;2023-03-23T13:59:30;5.30;;;3.17;;
15712;SDS011;7957;51.608;6.916;2023-03-23T14:07:59;6.07;;;3.60;;
15712;SDS011;7957;51.608;6.916;2023-03-23T14:10:32;6.53;;;3.55;;
15712;SDS011;7957;51.608;6.916;2023-03-23T14:13:01;19.13;;;4.67;;
15712;SDS011;7957;51.608;6.916;2023-03-23T14:15:36;32.23;;;5.37;;
15712;SDS011;7957;51.608;6.916;2023-03-23T14:18:11;14.97;;;4.47;;
15712;SDS011;7957;51.608;6.916;2023-03-23T14:20:42;9.80;;;4.67;;
15712;SDS011;7957;51.608;6.916;2023-03-23T14:23:14;11.50;;;4.73;;
15712;SDS011;7957;51.608;6.916;2023-03-23T14:25:42;8.80;;;3.90;;
15712;SDS011;7957;51.608;6.916;2023-03-23T14:28:19;7.10;;;4.03;;
15712;SDS011;7957;51.608;6.916;2023-03-23T14:30:47;7.63;;;3.67;;
15712;SDS011;7957;51.608;6.916;2023-03-23T14:33:18;7.73;;;4.10;;
15712;SDS011;7957;51.608;6.916;2023-03-23T14:35:47;9.20;;;4.00;;
15712;SDS011;7957;51.608;6.916;2023-03-23T14:38:15;11.03;;;3.90;;
15712;SDS011;7957;51.608;6.916;2023-03-23T14:40:46;6.37;;;3.90;;
15712;SDS011;7957;51.608;6.916;2023-03-23T14:43:14;6.97;;;3.40;;
15712;SDS011;7957;51.608;6.916;2023-03-23T14:45:43;9.67;;;3.90;;
15712;SDS011;7957;51.608;6.916;2023-03-23T14:48:17;8.10;;;3.43;;
15712;SDS011;7957;51.608;6.916;2023-03-23T14:50:50;6.73;;;3.80;;
15712;SDS011;7957;51.608;6.916;2023-03-23T14:53:18;5.57;;;3.50;;
15712;SDS011;7957;51.608;6.916;2023-03-23T14:55:49;8.10;;;3.40;;
15712;SDS011;7957;51.608;6.916;2023-03-23T14:58:18;11.70;;;4.10;;
15712;SDS011;7957;51.608;6.916;2023-03-23T15:00:47;7.43;;;4.47;;
15712;SDS011;7957;51.608;6.916;2023-03-23T15:03:21;7.93;;;4.40;;
15712;SDS011;7957;51.608;6.916;2023-03-23T15:05:50;9.70;;;4.53;;
15712;SDS011;7957;51.608;6.916;2023-03-23T15:08:21;7.43;;;5.07;;
15712;SDS011;7957;51.608;6.916;2023-03-23T15:10:57;7.07;;;5.20;;
15712;SDS011;7957;51.608;6.916;2023-03-23T15:13:32;9.33;;;5.13;;
15712;SDS011;7957;51.608;6.916;2023-03-23T15:16:06;6.87;;;5.37;;
15712;SDS011;7957;51.608;6.916;2023-03-23T15:18:40;6.80;;;5.17;;
15712;SDS011;7957;51.608;6.916;2023-03-23T15:21:21;6.17;;;4.97;;
15712;SDS011;7957;51.608;6.916;2023-03-23T15:23:51;7.73;;;4.60;;
15712;SDS011;7957;51.608;6.916;2023-03-23T15:26:29;5.90;;;4.70;;
15712;SDS011;7957;51.608;6.916;2023-03-23T15:29:01;6.97;;;4.60;;
15712;SDS011;7957;51.608;6.916;2023-03-23T15:31:39;8.33;;;4.57;;
15712;SDS011;7957;51.608;6.916;2023-03-23T15:34:11;5.60;;;3.97;;
15712;SDS011;7957;51.608;6.916;2023-03-23T15:36:47;7.70;;;4.30;;
15712;SDS011;7957;51.608;6.916;2023-03-23T15:39:18;5.30;;;3.93;;
15712;SDS011;7957;51.608;6.916;2023-03-23T15:41:46;6.63;;;4.17;;
15712;SDS011;7957;51.608;6.916;2023-03-23T15:44:23;6.33;;;3.97;;
15712;SDS011;7957;51.608;6.916;2023-03-23T15:47:12;6.90;;;3.80;;